createdAt,value
2019-02-15T00:01:31.987Z,90.70
2019-02-15T00:06:38.871Z,91.50
2019-02-15T00:11:45.187Z,91.50
2019-02-15T00:16:51.434Z,91.70
2019-02-15T00:21:57.618Z,92.20
2019-02-15T00:27:03.843Z,92.60
2019-02-15T00:32:10.040Z,90.20
2019-02-15T00:37:16.321Z,89.80
2019-02-15T00:42:22.608Z,88.80
2019-02-15T00:47:40.058Z,88.90
2019-02-15T00:53:14.570Z,88.40
2019-02-15T00:58:31.565Z,88.10
2019-02-15T01:03:57.983Z,89.10
2019-02-15T01:09:28.625Z,88.80
2019-02-15T01:14:34.827Z,89.60
2019-02-15T01:19:41.029Z,88.50
2019-02-15T01:24:48.899Z,88.70
2019-02-15T01:30:03.146Z,89.20
2019-02-15T01:35:27.676Z,89.60
2019-02-15T01:40:51.237Z,90.40
2019-02-15T01:46:06.763Z,91.60
2019-02-15T01:51:12.990Z,91.20
2019-02-15T01:56:19.190Z,92.00
2019-02-15T02:01:27.485Z,92.00
2019-02-15T02:06:33.687Z,92.90
2019-02-15T02:11:39.993Z,93.60
2019-02-15T02:16:46.259Z,93.00
2019-02-15T02:21:52.526Z,92.90
2019-02-15T02:26:58.707Z,93.10
2019-02-15T02:32:05.397Z,92.90
2019-02-15T02:37:11.809Z,92.70
2019-02-15T02:42:18.088Z,92.30
2019-02-15T02:47:24.350Z,92.00
2019-02-15T02:52:30.609Z,92.70
2019-02-15T02:57:36.873Z,93.10
2019-02-15T03:02:43.203Z,93.60
2019-02-15T03:07:49.408Z,93.50
2019-02-15T03:12:55.724Z,93.80
2019-02-15T03:18:01.997Z,94.10
2019-02-15T03:23:08.251Z,94.40
2019-02-15T03:28:14.504Z,94.10
2019-02-15T03:33:20.793Z,93.90
2019-02-15T03:38:38.028Z,94.00
2019-02-15T03:43:44.198Z,93.90
2019-02-15T03:48:50.422Z,94.00
2019-02-15T03:53:56.762Z,94.20
2019-02-15T03:59:03.004Z,94.50
2019-02-15T04:04:10.168Z,94.30
2019-02-15T04:09:16.836Z,94.50
2019-02-15T04:14:32.531Z,94.70
2019-02-15T04:19:31.049Z,94.60
2019-02-15T04:24:37.513Z,94.90
2019-02-15T04:29:43.816Z,94.40
2019-02-15T04:34:50.130Z,95.00
2019-02-15T04:39:56.446Z,95.10
2019-02-15T04:45:02.689Z,95.40
2019-02-15T04:50:09.833Z,95.40
2019-02-15T04:55:16.055Z,95.20
2019-02-15T05:00:22.330Z,95.50
2019-02-15T05:05:28.509Z,92.70
2019-02-15T05:10:34.716Z,91.90
2019-02-15T05:15:41.139Z,92.50
2019-02-15T05:20:47.432Z,93.50
2019-02-15T05:25:53.745Z,94.20
2019-02-15T05:31:00.060Z,93.30
2019-02-15T05:36:06.364Z,93.40
2019-02-15T05:41:12.762Z,93.30
2019-02-15T05:46:19.139Z,93.10
2019-02-15T05:51:25.518Z,93.10
2019-02-15T05:56:31.917Z,92.90
2019-02-15T06:01:38.191Z,92.90
2019-02-15T06:06:44.450Z,92.90
2019-02-15T06:11:50.723Z,94.20
2019-02-15T06:16:56.958Z,93.10
2019-02-15T06:22:03.232Z,91.80
2019-02-15T06:27:09.563Z,92.20
2019-02-15T06:32:15.828Z,91.90
2019-02-15T06:37:22.103Z,92.80
2019-02-15T06:42:28.468Z,92.10
2019-02-15T06:47:36.345Z,92.70
2019-02-15T06:52:42.609Z,91.50
2019-02-15T06:57:48.824Z,92.10
2019-02-15T07:03:02.873Z,92.00
2019-02-15T07:08:09.090Z,93.10
2019-02-15T07:13:15.380Z,92.60
2019-02-15T07:18:21.652Z,92.10
2019-02-15T07:23:27.866Z,91.80
2019-02-15T07:28:34.091Z,91.80
2019-02-15T07:33:40.375Z,91.60
2019-02-15T07:38:46.627Z,92.40
2019-02-15T07:43:53.152Z,91.40
2019-02-15T07:48:59.479Z,91.30
2019-02-15T07:54:05.712Z,91.30
2019-02-15T07:59:11.959Z,90.90
2019-02-15T08:04:18.267Z,90.80
2019-02-15T08:09:24.543Z,90.50
2019-02-15T08:14:30.792Z,90.60
2019-02-15T08:19:36.998Z,90.30
2019-02-15T08:24:46.387Z,89.50
2019-02-15T08:29:52.702Z,89.40
2019-02-15T08:34:59.209Z,89.70
2019-02-15T08:40:06.236Z,88.00
2019-02-15T08:45:13.261Z,87.40
2019-02-15T08:50:19.667Z,87.40
2019-02-15T08:55:26.027Z,85.60
2019-02-15T09:00:32.273Z,82.00
2019-02-15T09:05:38.615Z,80.10
2019-02-15T09:10:44.830Z,79.80
2019-02-15T09:15:51.237Z,78.50
2019-02-15T09:20:57.507Z,74.90
2019-02-15T09:26:03.689Z,75.20
2019-02-15T09:31:09.900Z,74.10
2019-02-15T09:36:16.098Z,73.70
2019-02-15T09:41:22.387Z,73.40
2019-02-15T09:46:28.631Z,72.10
2019-02-15T09:51:34.854Z,69.10
2019-02-15T09:56:41.185Z,68.80
2019-02-15T10:01:47.549Z,71.00
2019-02-15T10:06:53.885Z,68.70
2019-02-15T10:12:00.173Z,68.00
2019-02-15T10:17:09.229Z,66.70
2019-02-15T10:22:15.482Z,64.10
2019-02-15T10:27:21.768Z,64.60
2019-02-15T10:32:28.009Z,66.60
2019-02-15T10:37:34.591Z,63.80
2019-02-15T10:42:40.831Z,63.80
2019-02-15T10:47:47.051Z,60.50
2019-02-15T10:52:53.295Z,62.20
2019-02-15T10:57:59.768Z,61.00
2019-02-15T11:03:06.117Z,60.90
2019-02-15T11:08:12.353Z,61.30
2019-02-15T11:13:18.631Z,60.90
2019-02-15T11:18:25.021Z,60.20
2019-02-15T11:23:31.300Z,58.60
2019-02-15T11:28:37.487Z,59.00
2019-02-15T11:33:43.777Z,60.50
2019-02-15T11:38:50.022Z,58.80
2019-02-15T11:43:56.239Z,57.20
2019-02-15T11:49:02.595Z,57.90
2019-02-15T11:54:08.855Z,57.70
2019-02-15T11:59:15.059Z,59.00
2019-02-15T12:04:21.421Z,58.30
2019-02-15T12:09:28.147Z,57.90
2019-02-15T12:14:34.536Z,58.50
2019-02-15T12:19:40.815Z,57.90
2019-02-15T12:24:47.228Z,58.60
2019-02-15T12:29:55.279Z,58.20
2019-02-15T12:35:01.508Z,57.80
2019-02-15T12:40:07.821Z,57.20
2019-02-15T12:45:14.238Z,57.40
2019-02-15T12:50:20.520Z,57.60
2019-02-15T12:55:26.753Z,57.20
2019-02-15T13:00:33.311Z,57.70
2019-02-15T13:05:39.876Z,58.20
2019-02-15T13:10:46.209Z,58.90
2019-02-15T13:15:52.552Z,58.60
2019-02-15T13:20:58.858Z,60.40
2019-02-15T13:26:08.376Z,59.60
2019-02-15T13:31:13.347Z,61.30
2019-02-15T13:36:20.155Z,58.60
2019-02-15T13:41:26.477Z,57.50
2019-02-15T13:46:33.429Z,58.40
2019-02-15T13:51:40.296Z,59.40
2019-02-15T13:56:46.512Z,58.40
2019-02-15T14:01:52.826Z,57.70
2019-02-15T14:06:59.124Z,58.20
2019-02-15T14:12:05.434Z,59.00
2019-02-15T14:17:11.632Z,58.40
2019-02-15T14:22:17.900Z,57.50
2019-02-15T14:27:24.155Z,58.50
2019-02-15T14:32:30.355Z,57.00
2019-02-15T14:37:36.608Z,57.90
2019-02-15T14:42:42.878Z,58.80
2019-02-15T14:47:54.905Z,58.00
2019-02-15T14:52:57.072Z,57.70
2019-02-15T14:58:03.539Z,57.20
2019-02-15T15:03:10.355Z,58.20
2019-02-15T15:08:16.663Z,58.70
2019-02-15T15:13:22.949Z,58.20
2019-02-15T15:18:29.283Z,60.20
2019-02-15T15:23:35.601Z,59.40
2019-02-15T15:28:41.832Z,61.40
2019-02-15T15:33:48.182Z,61.80
2019-02-15T15:38:54.432Z,60.80
2019-02-15T15:44:00.703Z,61.30
2019-02-15T15:49:06.942Z,61.10
2019-02-15T15:54:13.234Z,63.00
2019-02-15T15:59:19.604Z,62.90
2019-02-15T16:04:25.815Z,62.20
2019-02-15T16:09:32.105Z,62.60
2019-02-15T16:14:38.328Z,61.60
2019-02-15T16:19:49.250Z,61.20
2019-02-15T16:24:52.568Z,61.20
2019-02-15T16:29:58.886Z,62.60
2019-02-15T16:35:06.272Z,62.90
2019-02-15T16:40:13.064Z,66.10
2019-02-15T16:45:19.356Z,66.40
2019-02-15T16:50:25.723Z,68.10
2019-02-15T16:55:31.930Z,67.80
2019-02-15T17:00:38.256Z,73.90
2019-02-15T17:05:44.525Z,70.20
2019-02-15T17:10:50.753Z,71.10
2019-02-15T17:15:57.058Z,71.40
2019-02-15T17:21:03.280Z,70.50
2019-02-15T17:26:09.547Z,67.20
2019-02-15T17:31:15.774Z,64.50
2019-02-15T17:36:22.089Z,65.20
2019-02-15T17:41:28.313Z,64.40
2019-02-15T17:46:34.551Z,64.60
2019-02-15T17:51:40.852Z,64.90
2019-02-15T17:56:47.051Z,65.10
2019-02-15T18:01:53.355Z,65.90
2019-02-15T18:06:59.612Z,67.20
2019-02-15T18:12:05.813Z,69.50
2019-02-15T18:17:12.065Z,69.40
2019-02-15T18:22:18.449Z,69.20
2019-02-15T18:27:24.764Z,71.80
2019-02-15T18:32:31.241Z,74.50
2019-02-15T18:37:37.648Z,76.40
2019-02-15T18:42:43.942Z,71.90
2019-02-15T18:47:50.276Z,69.80
2019-02-15T18:52:56.591Z,68.30
2019-02-15T18:58:02.880Z,69.90
2019-02-15T19:03:09.104Z,69.00
2019-02-15T19:08:15.432Z,69.20
2019-02-15T19:13:21.676Z,68.20
2019-02-15T19:18:27.963Z,67.80
2019-02-15T19:23:34.253Z,68.40
2019-02-15T19:28:40.505Z,67.90
2019-02-15T19:33:46.833Z,68.00
2019-02-15T19:38:53.152Z,67.10
2019-02-15T19:43:59.487Z,67.70
2019-02-15T19:49:05.797Z,66.60
2019-02-15T19:54:12.067Z,66.90
2019-02-15T19:59:18.473Z,66.90
2019-02-15T20:04:24.865Z,67.80
2019-02-15T20:09:31.126Z,67.10
2019-02-15T20:14:37.465Z,67.10
2019-02-15T20:19:48.336Z,68.60
2019-02-15T20:24:51.739Z,67.90
2019-02-15T20:29:58.074Z,67.90
2019-02-15T20:35:04.400Z,68.00
2019-02-15T20:40:11.076Z,68.40
2019-02-15T20:45:18.750Z,68.60
2019-02-15T20:50:25.163Z,68.10
2019-02-15T20:55:31.473Z,68.60
2019-02-15T21:00:37.814Z,68.70
2019-02-15T21:05:44.190Z,71.00
2019-02-15T21:10:55.063Z,70.80
2019-02-15T21:15:58.353Z,70.40
2019-02-15T21:21:05.544Z,70.40
2019-02-15T21:26:11.775Z,70.80
2019-02-15T21:31:18.183Z,70.50
2019-02-15T21:36:24.510Z,70.70
2019-02-15T21:41:31.147Z,70.60
2019-02-15T21:46:38.397Z,72.80
2019-02-15T21:51:44.623Z,73.20
2019-02-15T21:56:50.897Z,73.60
2019-02-15T22:01:57.178Z,72.90
2019-02-15T22:07:03.384Z,73.00
2019-02-15T22:12:09.634Z,74.80
2019-02-15T22:17:16.093Z,73.90
2019-02-15T22:22:23.315Z,73.80
2019-02-15T22:27:29.528Z,74.40
2019-02-15T22:32:35.718Z,74.10
2019-02-15T22:37:41.960Z,75.00
2019-02-15T22:42:48.267Z,74.70
2019-02-15T22:47:54.595Z,75.40
2019-02-15T22:53:01.877Z,75.40
2019-02-15T22:58:08.159Z,76.10
2019-02-15T23:03:15.350Z,75.80
2019-02-15T23:08:21.593Z,77.40
2019-02-15T23:13:27.837Z,77.00
2019-02-15T23:18:34.085Z,77.70
2019-02-15T23:23:40.356Z,79.60
2019-02-15T23:28:46.559Z,79.90
2019-02-15T23:33:52.849Z,79.10
2019-02-15T23:38:59.232Z,82.40
2019-02-15T23:44:05.630Z,80.60
2019-02-15T23:49:11.964Z,80.00
2019-02-15T23:54:18.455Z,81.80
2019-02-15T23:59:25.053Z,82.70
